sensor_id;sensor_type;location;lat;lon;timestamp;P1;durP1;ratioP1;P2;durP2;ratioP2
36995;SDS011;22905;50.340;10.776;2023-04-03T00:04:32;5.07;;;3.37;;
36995;SDS011;22905;50.340;10.776;2023-04-03T00:09:32;5.33;;;4.63;;
36995;SDS011;22905;50.340;10.776;2023-04-03T00:14:33;5.00;;;3.93;;
36995;SDS011;22905;50.340;10.776;2023-04-03T00:19:33;8.17;;;4.50;;
36995;SDS011;22905;50.340;10.776;2023-04-03T00:24:34;6.40;;;3.33;;
36995;SDS011;22905;50.340;10.776;2023-04-03T00:29:34;5.63;;;4.05;;
36995;SDS011;22905;50.340;10.776;2023-04-03T00:34:35;4.97;;;4.47;;
36995;SDS011;22905;50.340;10.776;2023-04-03T00:39:35;7.43;;;3.90;;
36995;SDS011;22905;50.340;10.776;2023-04-03T00:49:36;7.82;;;3.00;;
36995;SDS011;22905;50.340;10.776;2023-04-03T00:54:37;5.22;;;3.08;;
36995;SDS011;22905;50.340;10.776;2023-04-03T00:59:48;6.67;;;2.90;;
36995;SDS011;22905;50.340;10.776;2023-04-03T01:04:51;9.90;;;3.33;;
36995;SDS011;22905;50.340;10.776;2023-04-03T01:09:53;5.47;;;3.42;;
36995;SDS011;22905;50.340;10.776;2023-04-03T01:14:57;4.47;;;3.53;;
36995;SDS011;22905;50.340;10.776;2023-04-03T01:25:02;6.93;;;3.60;;
36995;SDS011;22905;50.340;10.776;2023-04-03T01:30:03;5.82;;;3.90;;
36995;SDS011;22905;50.340;10.776;2023-04-03T01:35:06;7.85;;;3.17;;
36995;SDS011;22905;50.340;10.776;2023-04-03T01:40:07;7.97;;;4.03;;
36995;SDS011;22905;50.340;10.776;2023-04-03T01:45:08;5.97;;;4.03;;
36995;SDS011;22905;50.340;10.776;2023-04-03T01:50:08;6.30;;;3.92;;
36995;SDS011;22905;50.340;10.776;2023-04-03T01:55:09;6.82;;;3.30;;
36995;SDS011;22905;50.340;10.776;2023-04-03T02:00:09;11.30;;;3.80;;
36995;SDS011;22905;50.340;10.776;2023-04-03T02:05:11;26.02;;;5.72;;
36995;SDS011;22905;50.340;10.776;2023-04-03T02:10:11;6.93;;;3.72;;
36995;SDS011;22905;50.340;10.776;2023-04-03T02:15:11;11.23;;;5.53;;
36995;SDS011;22905;50.340;10.776;2023-04-03T02:20:12;12.60;;;4.13;;
36995;SDS011;22905;50.340;10.776;2023-04-03T02:25:12;6.05;;;3.88;;
36995;SDS011;22905;50.340;10.776;2023-04-03T02:30:13;5.30;;;3.40;;
36995;SDS011;22905;50.340;10.776;2023-04-03T02:35:14;5.60;;;3.25;;
36995;SDS011;22905;50.340;10.776;2023-04-03T02:40:15;9.45;;;4.13;;
36995;SDS011;22905;50.340;10.776;2023-04-03T02:45:15;11.15;;;5.03;;
36995;SDS011;22905;50.340;10.776;2023-04-03T02:50:16;10.52;;;4.95;;
36995;SDS011;22905;50.340;10.776;2023-04-03T02:55:16;7.38;;;3.97;;
36995;SDS011;22905;50.340;10.776;2023-04-03T03:00:16;8.47;;;5.00;;
36995;SDS011;22905;50.340;10.776;2023-04-03T03:05:17;22.85;;;6.50;;
36995;SDS011;22905;50.340;10.776;2023-04-03T03:10:18;10.30;;;5.20;;
36995;SDS011;22905;50.340;10.776;2023-04-03T03:15:18;6.65;;;4.25;;
36995;SDS011;22905;50.340;10.776;2023-04-03T03:20:19;7.78;;;4.85;;
36995;SDS011;22905;50.340;10.776;2023-04-03T03:25:20;9.85;;;4.50;;
36995;SDS011;22905;50.340;10.776;2023-04-03T03:30:21;9.20;;;4.35;;
36995;SDS011;22905;50.340;10.776;2023-04-03T03:35:21;5.13;;;4.32;;
36995;SDS011;22905;50.340;10.776;2023-04-03T03:40:21;9.98;;;4.13;;
36995;SDS011;22905;50.340;10.776;2023-04-03T03:45:22;11.73;;;5.00;;
36995;SDS011;22905;50.340;10.776;2023-04-03T03:50:22;6.72;;;4.93;;
36995;SDS011;22905;50.340;10.776;2023-04-03T03:55:22;7.20;;;4.32;;
36995;SDS011;22905;50.340;10.776;2023-04-03T04:00:22;8.85;;;5.25;;
36995;SDS011;22905;50.340;10.776;2023-04-03T04:05:23;10.23;;;4.50;;
36995;SDS011;22905;50.340;10.776;2023-04-03T04:16:24;6.55;;;4.80;;
36995;SDS011;22905;50.340;10.776;2023-04-03T04:21:25;7.43;;;5.55;;
36995;SDS011;22905;50.340;10.776;2023-04-03T04:26:25;15.15;;;4.88;;
36995;SDS011;22905;50.340;10.776;2023-04-03T04:31:26;8.40;;;5.30;;
36995;SDS011;22905;50.340;10.776;2023-04-03T04:36:27;12.40;;;5.35;;
36995;SDS011;22905;50.340;10.776;2023-04-03T04:41:31;9.27;;;5.40;;
36995;SDS011;22905;50.340;10.776;2023-04-03T04:46:31;9.15;;;5.45;;
36995;SDS011;22905;50.340;10.776;2023-04-03T04:51:32;9.77;;;5.00;;
36995;SDS011;22905;50.340;10.776;2023-04-03T04:56:32;9.57;;;5.73;;
36995;SDS011;22905;50.340;10.776;2023-04-03T05:01:32;13.17;;;4.80;;
36995;SDS011;22905;50.340;10.776;2023-04-03T05:06:32;8.60;;;5.77;;
36995;SDS011;22905;50.340;10.776;2023-04-03T05:11:34;10.03;;;4.60;;
36995;SDS011;22905;50.340;10.776;2023-04-03T05:16:35;8.38;;;5.00;;
36995;SDS011;22905;50.340;10.776;2023-04-03T05:21:36;10.40;;;5.55;;
36995;SDS011;22905;50.340;10.776;2023-04-03T05:26:36;10.00;;;5.38;;
36995;SDS011;22905;50.340;10.776;2023-04-03T05:31:36;8.48;;;5.30;;
36995;SDS011;22905;50.340;10.776;2023-04-03T05:36:37;11.38;;;6.10;;
36995;SDS011;22905;50.340;10.776;2023-04-03T05:41:37;14.35;;;6.43;;
36995;SDS011;22905;50.340;10.776;2023-04-03T05:46:37;20.73;;;6.03;;
36995;SDS011;22905;50.340;10.776;2023-04-03T05:51:38;11.50;;;5.67;;
36995;SDS011;22905;50.340;10.776;2023-04-03T05:56:38;12.23;;;5.88;;
36995;SDS011;22905;50.340;10.776;2023-04-03T06:01:38;7.10;;;4.57;;
36995;SDS011;22905;50.340;10.776;2023-04-03T06:06:46;8.90;;;4.73;;
36995;SDS011;22905;50.340;10.776;2023-04-03T06:11:51;6.72;;;5.32;;
36995;SDS011;22905;50.340;10.776;2023-04-03T06:16:52;10.18;;;6.43;;
36995;SDS011;22905;50.340;10.776;2023-04-03T06:21:53;11.52;;;5.32;;
36995;SDS011;22905;50.340;10.776;2023-04-03T06:26:54;8.68;;;4.72;;
36995;SDS011;22905;50.340;10.776;2023-04-03T06:31:55;6.47;;;4.53;;
36995;SDS011;22905;50.340;10.776;2023-04-03T06:36:55;8.05;;;4.47;;
36995;SDS011;22905;50.340;10.776;2023-04-03T06:41:55;9.27;;;4.40;;
36995;SDS011;22905;50.340;10.776;2023-04-03T06:46:56;9.10;;;4.30;;
36995;SDS011;22905;50.340;10.776;2023-04-03T06:51:56;8.47;;;5.03;;
36995;SDS011;22905;50.340;10.776;2023-04-03T06:56:56;10.63;;;4.35;;
36995;SDS011;22905;50.340;10.776;2023-04-03T07:01:57;13.13;;;5.35;;
36995;SDS011;22905;50.340;10.776;2023-04-03T07:06:59;7.57;;;4.25;;
36995;SDS011;22905;50.340;10.776;2023-04-03T07:12:00;10.30;;;4.60;;
36995;SDS011;22905;50.340;10.776;2023-04-03T07:17:00;12.90;;;4.90;;
36995;SDS011;22905;50.340;10.776;2023-04-03T07:22:00;6.53;;;4.32;;
36995;SDS011;22905;50.340;10.776;2023-04-03T07:27:01;9.68;;;5.15;;
36995;SDS011;22905;50.340;10.776;2023-04-03T07:32:03;13.52;;;3.67;;
36995;SDS011;22905;50.340;10.776;2023-04-03T07:37:05;11.57;;;3.92;;
36995;SDS011;22905;50.340;10.776;2023-04-03T07:42:06;17.15;;;5.95;;
36995;SDS011;22905;50.340;10.776;2023-04-03T07:47:07;13.05;;;4.10;;
36995;SDS011;22905;50.340;10.776;2023-04-03T07:52:07;6.13;;;3.63;;
36995;SDS011;22905;50.340;10.776;2023-04-03T07:57:09;8.73;;;3.90;;
36995;SDS011;22905;50.340;10.776;2023-04-03T08:02:09;9.95;;;4.38;;
36995;SDS011;22905;50.340;10.776;2023-04-03T08:07:10;11.82;;;4.00;;
36995;SDS011;22905;50.340;10.776;2023-04-03T08:12:10;7.17;;;4.60;;
36995;SDS011;22905;50.340;10.776;2023-04-03T08:17:11;4.90;;;3.03;;
36995;SDS011;22905;50.340;10.776;2023-04-03T08:22:11;8.07;;;2.97;;
36995;SDS011;22905;50.340;10.776;2023-04-03T08:27:12;11.68;;;3.17;;
36995;SDS011;22905;50.340;10.776;2023-04-03T08:32:12;8.87;;;2.50;;
36995;SDS011;22905;50.340;10.776;2023-04-03T08:37:12;7.88;;;2.75;;
36995;SDS011;22905;50.340;10.776;2023-04-03T08:48:04;5.43;;;2.40;;
36995;SDS011;22905;50.340;10.776;2023-04-03T08:53:14;4.38;;;2.20;;
36995;SDS011;22905;50.340;10.776;2023-04-03T08:58:19;2.45;;;2.03;;
36995;SDS011;22905;50.340;10.776;2023-04-03T09:25:48;5.25;;;2.00;;
36995;SDS011;22905;50.340;10.776;2023-04-03T09:42:40;5.70;;;2.20;;
36995;SDS011;22905;50.340;10.776;2023-04-03T09:53:29;5.07;;;2.70;;
36995;SDS011;22905;50.340;10.776;2023-04-03T09:58:36;2.72;;;2.03;;
36995;SDS011;22905;50.340;10.776;2023-04-03T10:03:40;7.80;;;3.20;;
36995;SDS011;22905;50.340;10.776;2023-04-03T10:09:05;6.68;;;2.67;;
36995;SDS011;22905;50.340;10.776;2023-04-03T10:14:37;12.10;;;3.05;;
36995;SDS011;22905;50.340;10.776;2023-04-03T10:24:48;4.82;;;1.90;;
36995;SDS011;22905;50.340;10.776;2023-04-03T10:30:01;5.20;;;1.92;;
36995;SDS011;22905;50.340;10.776;2023-04-03T10:40:32;4.78;;;2.05;;
36995;SDS011;22905;50.340;10.776;2023-04-03T10:45:55;4.00;;;1.85;;
36995;SDS011;22905;50.340;10.776;2023-04-03T11:01:19;2.83;;;1.65;;
36995;SDS011;22905;50.340;10.776;2023-04-03T11:06:22;6.63;;;2.40;;
36995;SDS011;22905;50.340;10.776;2023-04-03T11:11:27;5.72;;;2.03;;
36995;SDS011;22905;50.340;10.776;2023-04-03T11:16:32;7.63;;;2.17;;
36995;SDS011;22905;50.340;10.776;2023-04-03T11:21:39;5.72;;;2.10;;
36995;SDS011;22905;50.340;10.776;2023-04-03T11:26:43;3.10;;;1.50;;
36995;SDS011;22905;50.340;10.776;2023-04-03T11:32:02;2.17;;;1.58;;
36995;SDS011;22905;50.340;10.776;2023-04-03T11:53:26;3.25;;;1.98;;
36995;SDS011;22905;50.340;10.776;2023-04-03T11:58:39;4.55;;;2.78;;
36995;SDS011;22905;50.340;10.776;2023-04-03T12:24:13;2.45;;;1.85;;
36995;SDS011;22905;50.340;10.776;2023-04-03T12:29:29;3.92;;;1.50;;
36995;SDS011;22905;50.340;10.776;2023-04-03T12:40:15;12.98;;;2.58;;
36995;SDS011;22905;50.340;10.776;2023-04-03T12:45:22;3.90;;;1.50;;
36995;SDS011;22905;50.340;10.776;2023-04-03T12:50:31;6.70;;;1.98;;
36995;SDS011;22905;50.340;10.776;2023-04-03T12:55:32;7.32;;;2.22;;
36995;SDS011;22905;50.340;10.776;2023-04-03T13:00:34;6.13;;;2.10;;
36995;SDS011;22905;50.340;10.776;2023-04-03T13:05:35;3.83;;;1.92;;
36995;SDS011;22905;50.340;10.776;2023-04-03T13:10:49;6.00;;;2.20;;
36995;SDS011;22905;50.340;10.776;2023-04-03T13:15:55;4.75;;;1.80;;
36995;SDS011;22905;50.340;10.776;2023-04-03T13:20:57;3.58;;;1.52;;
36995;SDS011;22905;50.340;10.776;2023-04-03T13:26:00;3.67;;;2.05;;
36995;SDS011;22905;50.340;10.776;2023-04-03T13:31:06;3.72;;;1.63;;
36995;SDS011;22905;50.340;10.776;2023-04-03T13:36:16;5.53;;;1.65;;
36995;SDS011;22905;50.340;10.776;2023-04-03T13:46:23;2.97;;;1.58;;
36995;SDS011;22905;50.340;10.776;2023-04-03T13:51:26;4.43;;;2.33;;
36995;SDS011;22905;50.340;10.776;2023-04-03T13:56:32;5.70;;;1.67;;
36995;SDS011;22905;50.340;10.776;2023-04-03T14:01:42;2.03;;;1.33;;
36995;SDS011;22905;50.340;10.776;2023-04-03T14:06:43;5.18;;;1.23;;
36995;SDS011;22905;50.340;10.776;2023-04-03T14:11:44;2.25;;;1.50;;
36995;SDS011;22905;50.340;10.776;2023-04-03T14:16:47;5.97;;;1.75;;
36995;SDS011;22905;50.340;10.776;2023-04-03T14:21:51;2.53;;;1.83;;
36995;SDS011;22905;50.340;10.776;2023-04-03T14:26:53;2.30;;;1.20;;
36995;SDS011;22905;50.340;10.776;2023-04-03T14:31:54;3.63;;;1.58;;
36995;SDS011;22905;50.340;10.776;2023-04-03T14:36:55;7.07;;;1.50;;
36995;SDS011;22905;50.340;10.776;2023-04-03T14:41:55;6.22;;;2.17;;
36995;SDS011;22905;50.340;10.776;2023-04-03T14:46:55;6.60;;;1.90;;
36995;SDS011;22905;50.340;10.776;2023-04-03T14:51:57;3.97;;;1.65;;
36995;SDS011;22905;50.340;10.776;2023-04-03T14:56:58;9.52;;;1.70;;
36995;SDS011;22905;50.340;10.776;2023-04-03T15:01:59;7.60;;;1.63;;
36995;SDS011;22905;50.340;10.776;2023-04-03T15:06:59;3.05;;;1.27;;
36995;SDS011;22905;50.340;10.776;2023-04-03T15:12:00;3.38;;;1.45;;
36995;SDS011;22905;50.340;10.776;2023-04-03T15:17:00;2.70;;;1.50;;
36995;SDS011;22905;50.340;10.776;2023-04-03T15:22:01;5.05;;;1.60;;
36995;SDS011;22905;50.340;10.776;2023-04-03T15:27:01;6.05;;;1.77;;
36995;SDS011;22905;50.340;10.776;2023-04-03T15:32:01;3.27;;;1.50;;
36995;SDS011;22905;50.340;10.776;2023-04-03T15:37:02;4.77;;;2.07;;
36995;SDS011;22905;50.340;10.776;2023-04-03T15:42:02;3.78;;;2.03;;
36995;SDS011;22905;50.340;10.776;2023-04-03T15:47:08;4.15;;;1.70;;
36995;SDS011;22905;50.340;10.776;2023-04-03T15:52:09;5.32;;;1.85;;
36995;SDS011;22905;50.340;10.776;2023-04-03T15:57:09;7.70;;;2.15;;
36995;SDS011;22905;50.340;10.776;2023-04-03T16:02:10;4.53;;;2.03;;
36995;SDS011;22905;50.340;10.776;2023-04-03T16:07:15;5.05;;;1.73;;
36995;SDS011;22905;50.340;10.776;2023-04-03T16:12:34;5.18;;;2.00;;
36995;SDS011;22905;50.340;10.776;2023-04-03T16:17:44;4.07;;;2.10;;
36995;SDS011;22905;50.340;10.776;2023-04-03T16:22:44;6.22;;;1.90;;
36995;SDS011;22905;50.340;10.776;2023-04-03T16:27:45;4.05;;;2.58;;
36995;SDS011;22905;50.340;10.776;2023-04-03T16:32:45;6.17;;;2.30;;
36995;SDS011;22905;50.340;10.776;2023-04-03T16:37:46;4.10;;;2.40;;
36995;SDS011;22905;50.340;10.776;2023-04-03T16:42:46;17.38;;;3.92;;
36995;SDS011;22905;50.340;10.776;2023-04-03T16:47:47;5.40;;;2.42;;
36995;SDS011;22905;50.340;10.776;2023-04-03T16:52:47;6.90;;;2.30;;
36995;SDS011;22905;50.340;10.776;2023-04-03T16:57:47;12.67;;;4.63;;
36995;SDS011;22905;50.340;10.776;2023-04-03T17:02:48;2.87;;;2.00;;
36995;SDS011;22905;50.340;10.776;2023-04-03T17:07:48;6.97;;;2.75;;
36995;SDS011;22905;50.340;10.776;2023-04-03T17:12:48;4.77;;;1.90;;
36995;SDS011;22905;50.340;10.776;2023-04-03T17:17:49;4.07;;;2.47;;
36995;SDS011;22905;50.340;10.776;2023-04-03T17:22:51;6.53;;;3.25;;
36995;SDS011;22905;50.340;10.776;2023-04-03T17:33:27;7.28;;;2.63;;
36995;SDS011;22905;50.340;10.776;2023-04-03T17:38:30;8.82;;;2.95;;
36995;SDS011;22905;50.340;10.776;2023-04-03T17:43:32;6.10;;;3.42;;
36995;SDS011;22905;50.340;10.776;2023-04-03T17:48:33;9.95;;;4.93;;
36995;SDS011;22905;50.340;10.776;2023-04-03T17:53:35;12.50;;;5.90;;
36995;SDS011;22905;50.340;10.776;2023-04-03T17:58:35;8.98;;;3.65;;
36995;SDS011;22905;50.340;10.776;2023-04-03T18:03:36;4.78;;;2.70;;
36995;SDS011;22905;50.340;10.776;2023-04-03T18:08:37;9.80;;;3.13;;
36995;SDS011;22905;50.340;10.776;2023-04-03T18:13:39;4.57;;;2.10;;
36995;SDS011;22905;50.340;10.776;2023-04-03T18:18:40;6.87;;;2.83;;
36995;SDS011;22905;50.340;10.776;2023-04-03T18:23:41;6.95;;;3.38;;
36995;SDS011;22905;50.340;10.776;2023-04-03T18:28:45;7.15;;;2.25;;
36995;SDS011;22905;50.340;10.776;2023-04-03T18:34:07;7.10;;;3.88;;
36995;SDS011;22905;50.340;10.776;2023-04-03T18:39:07;9.20;;;3.22;;
36995;SDS011;22905;50.340;10.776;2023-04-03T18:44:16;5.28;;;2.60;;
36995;SDS011;22905;50.340;10.776;2023-04-03T18:49:18;5.28;;;2.80;;
36995;SDS011;22905;50.340;10.776;2023-04-03T18:54:19;12.55;;;3.30;;
36995;SDS011;22905;50.340;10.776;2023-04-03T18:59:19;14.98;;;3.20;;
36995;SDS011;22905;50.340;10.776;2023-04-03T19:04:20;4.78;;;3.10;;
36995;SDS011;22905;50.340;10.776;2023-04-03T19:09:21;7.78;;;2.60;;
36995;SDS011;22905;50.340;10.776;2023-04-03T19:14:21;13.75;;;4.90;;
36995;SDS011;22905;50.340;10.776;2023-04-03T19:19:22;17.42;;;6.60;;
36995;SDS011;22905;50.340;10.776;2023-04-03T19:24:22;12.77;;;4.63;;
36995;SDS011;22905;50.340;10.776;2023-04-03T19:29:23;6.32;;;2.97;;
36995;SDS011;22905;50.340;10.776;2023-04-03T19:34:23;5.13;;;2.60;;
36995;SDS011;22905;50.340;10.776;2023-04-03T19:39:24;6.03;;;2.38;;
36995;SDS011;22905;50.340;10.776;2023-04-03T19:44:25;3.15;;;2.40;;
36995;SDS011;22905;50.340;10.776;2023-04-03T19:49:26;7.47;;;2.67;;
36995;SDS011;22905;50.340;10.776;2023-04-03T19:54:26;8.65;;;3.20;;
36995;SDS011;22905;50.340;10.776;2023-04-03T19:59:27;5.47;;;2.90;;
36995;SDS011;22905;50.340;10.776;2023-04-03T20:04:27;6.68;;;2.70;;
36995;SDS011;22905;50.340;10.776;2023-04-03T20:09:27;2.40;;;2.10;;
36995;SDS011;22905;50.340;10.776;2023-04-03T20:14:28;5.37;;;2.60;;
36995;SDS011;22905;50.340;10.776;2023-04-03T20:19:30;5.33;;;2.80;;
36995;SDS011;22905;50.340;10.776;2023-04-03T20:24:30;3.65;;;2.20;;
36995;SDS011;22905;50.340;10.776;2023-04-03T20:29:31;4.63;;;3.25;;
36995;SDS011;22905;50.340;10.776;2023-04-03T20:34:34;4.00;;;2.50;;
36995;SDS011;22905;50.340;10.776;2023-04-03T20:39:35;4.37;;;2.37;;
36995;SDS011;22905;50.340;10.776;2023-04-03T20:44:35;3.47;;;2.30;;
36995;SDS011;22905;50.340;10.776;2023-04-03T20:49:36;2.30;;;2.05;;
36995;SDS011;22905;50.340;10.776;2023-04-03T20:54:36;3.77;;;2.07;;
36995;SDS011;22905;50.340;10.776;2023-04-03T20:59:37;3.58;;;2.20;;
36995;SDS011;22905;50.340;10.776;2023-04-03T21:04:41;3.95;;;2.53;;
36995;SDS011;22905;50.340;10.776;2023-04-03T21:20:50;2.90;;;2.38;;
36995;SDS011;22905;50.340;10.776;2023-04-03T21:25:50;2.55;;;2.35;;
36995;SDS011;22905;50.340;10.776;2023-04-03T21:30:51;5.43;;;2.55;;
36995;SDS011;22905;50.340;10.776;2023-04-03T21:35:51;4.47;;;2.20;;
36995;SDS011;22905;50.340;10.776;2023-04-03T21:40:56;3.35;;;1.98;;
36995;SDS011;22905;50.340;10.776;2023-04-03T21:45:57;4.82;;;3.17;;
36995;SDS011;22905;50.340;10.776;2023-04-03T21:51:04;6.00;;;2.58;;
36995;SDS011;22905;50.340;10.776;2023-04-03T21:56:05;4.28;;;1.90;;
36995;SDS011;22905;50.340;10.776;2023-04-03T22:01:09;2.17;;;2.03;;
36995;SDS011;22905;50.340;10.776;2023-04-03T22:06:11;3.65;;;2.63;;
36995;SDS011;22905;50.340;10.776;2023-04-03T22:11:13;7.00;;;2.58;;
36995;SDS011;22905;50.340;10.776;2023-04-03T22:16:14;3.30;;;3.00;;
36995;SDS011;22905;50.340;10.776;2023-04-03T22:21:15;4.93;;;3.50;;
36995;SDS011;22905;50.340;10.776;2023-04-03T22:26:15;2.60;;;2.20;;
36995;SDS011;22905;50.340;10.776;2023-04-03T22:31:15;3.93;;;2.57;;
36995;SDS011;22905;50.340;10.776;2023-04-03T22:36:16;4.35;;;2.55;;
36995;SDS011;22905;50.340;10.776;2023-04-03T22:41:16;4.47;;;2.42;;
36995;SDS011;22905;50.340;10.776;2023-04-03T22:46:17;3.03;;;2.72;;
36995;SDS011;22905;50.340;10.776;2023-04-03T22:51:17;5.90;;;2.87;;
36995;SDS011;22905;50.340;10.776;2023-04-03T22:56:17;4.63;;;2.67;;
36995;SDS011;22905;50.340;10.776;2023-04-03T23:01:18;2.65;;;2.45;;
36995;SDS011;22905;50.340;10.776;2023-04-03T23:06:19;2.22;;;2.03;;
36995;SDS011;22905;50.340;10.776;2023-04-03T23:11:19;3.83;;;2.33;;
36995;SDS011;22905;50.340;10.776;2023-04-03T23:16:20;5.53;;;2.63;;
36995;SDS011;22905;50.340;10.776;2023-04-03T23:21:20;2.30;;;2.10;;
36995;SDS011;22905;50.340;10.776;2023-04-03T23:26:21;4.30;;;2.15;;
36995;SDS011;22905;50.340;10.776;2023-04-03T23:31:22;3.97;;;2.70;;
36995;SDS011;22905;50.340;10.776;2023-04-03T23:36:24;4.00;;;2.27;;
36995;SDS011;22905;50.340;10.776;2023-04-03T23:41:24;6.43;;;2.63;;
36995;SDS011;22905;50.340;10.776;2023-04-03T23:46:25;6.43;;;2.30;;
36995;SDS011;22905;50.340;10.776;2023-04-03T23:51:25;3.70;;;2.20;;
36995;SDS011;22905;50.340;10.776;2023-04-03T23:56:26;8.20;;;1.95;;
